createdAt,value
2022-08-20T00:01:16.825Z,22.60
2022-08-20T00:03:44.735Z,22.60
2022-08-20T00:06:22.450Z,22.60
2022-08-20T00:08:50.904Z,22.50
2022-08-20T00:11:23.169Z,22.50
2022-08-20T00:13:59.503Z,22.60
2022-08-20T00:16:32.365Z,22.50
2022-08-20T00:19:07.410Z,22.40
2022-08-20T00:21:36.536Z,22.40
2022-08-20T00:24:05.455Z,22.40
2022-08-20T00:26:32.673Z,22.40
2022-08-20T00:28:59.625Z,22.40
2022-08-20T00:31:26.904Z,22.40
2022-08-20T00:33:53.956Z,22.40
2022-08-20T00:36:22.749Z,22.40
2022-08-20T00:38:59.947Z,22.30
2022-08-20T00:41:31.036Z,22.50
2022-08-20T00:44:06.941Z,22.40
2022-08-20T00:46:34.330Z,22.30
2022-08-20T00:49:03.861Z,22.50
2022-08-20T00:51:46.504Z,22.30
2022-08-20T00:54:33.529Z,22.30
2022-08-20T00:57:10.946Z,22.20
2022-08-20T00:59:41.739Z,22.20
2022-08-20T01:02:17.578Z,22.30
2022-08-20T01:04:54.658Z,22.30
2022-08-20T01:07:32.043Z,22.40
2022-08-20T01:10:01.437Z,22.30
2022-08-20T01:12:30.393Z,22.30
2022-08-20T01:15:01.713Z,22.30
2022-08-20T01:17:32.827Z,22.20
2022-08-20T01:20:18.679Z,22.20
2022-08-20T01:23:30.432Z,22.20
2022-08-20T01:26:22.683Z,22.20
2022-08-20T01:29:18.020Z,22.20
2022-08-20T01:31:46.202Z,22.20
2022-08-20T01:34:17.746Z,22.20
2022-08-20T01:36:53.248Z,22.20
2022-08-20T01:39:28.777Z,22.10
2022-08-20T01:42:12.889Z,22.10
2022-08-20T01:44:43.324Z,22.20
2022-08-20T01:47:23.888Z,22.20
2022-08-20T01:50:00.969Z,22.10
2022-08-20T01:52:48.125Z,22.10
2022-08-20T01:55:15.187Z,22.10
2022-08-20T01:57:42.097Z,22.00
2022-08-20T02:00:20.147Z,22.10
2022-08-20T02:02:49.687Z,22.00
2022-08-20T02:05:18.669Z,22.00
2022-08-20T02:07:45.781Z,22.00
2022-08-20T02:10:15.508Z,22.00
2022-08-20T02:12:42.529Z,22.00
2022-08-20T02:15:12.656Z,22.00
2022-08-20T02:17:41.772Z,22.00
2022-08-20T02:20:20.357Z,22.00
2022-08-20T02:22:59.128Z,22.00
2022-08-20T02:25:30.746Z,22.00
2022-08-20T02:28:03.381Z,22.00
2022-08-20T02:30:43.310Z,22.00
2022-08-20T02:33:13.846Z,21.90
2022-08-20T02:35:43.556Z,21.90
2022-08-20T02:38:11.721Z,21.90
2022-08-20T02:40:39.890Z,22.10
2022-08-20T02:43:06.703Z,21.90
2022-08-20T02:45:40.204Z,21.90
2022-08-20T02:48:07.054Z,21.90
2022-08-20T02:50:33.925Z,22.10
2022-08-20T02:53:00.765Z,21.90
2022-08-20T02:55:28.452Z,21.90
2022-08-20T02:58:01.429Z,21.80
2022-08-20T03:00:32.244Z,21.90
2022-08-20T03:03:08.479Z,21.90
2022-08-20T03:05:39.199Z,21.90
2022-08-20T03:08:10.449Z,21.90
2022-08-20T03:10:39.864Z,21.90
2022-08-20T03:13:12.294Z,21.90
2022-08-20T03:15:55.265Z,21.90
2022-08-20T03:18:29.840Z,21.90
2022-08-20T03:20:56.754Z,21.90
2022-08-20T03:23:24.283Z,21.80
2022-08-20T03:25:51.075Z,22.20
2022-08-20T03:28:19.400Z,21.80
2022-08-20T03:30:47.106Z,22.10
2022-08-20T03:33:14.052Z,21.80
2022-08-20T03:35:40.922Z,21.80
2022-08-20T03:38:12.423Z,21.70
2022-08-20T03:40:41.331Z,21.70
2022-08-20T03:43:09.872Z,21.70
2022-08-20T03:45:40.088Z,21.70
2022-08-20T03:48:10.252Z,21.70
2022-08-20T03:50:37.378Z,21.70
2022-08-20T03:53:04.544Z,21.60
2022-08-20T03:55:32.140Z,21.60
2022-08-20T03:58:06.288Z,21.60
2022-08-20T04:00:47.822Z,21.50
2022-08-20T04:03:15.986Z,21.80
2022-08-20T04:05:44.150Z,21.50
2022-08-20T04:08:20.310Z,21.60
2022-08-20T04:10:49.230Z,21.40
2022-08-20T04:13:19.925Z,21.40
2022-08-20T04:15:50.418Z,21.40
2022-08-20T04:18:21.406Z,21.40
2022-08-20T04:20:48.529Z,21.60
2022-08-20T04:23:15.387Z,21.30
2022-08-20T04:25:44.601Z,21.40
2022-08-20T04:28:25.417Z,21.30
2022-08-20T04:30:52.873Z,21.20
2022-08-20T04:33:24.378Z,21.40
2022-08-20T04:36:05.435Z,21.50
2022-08-20T04:38:50.210Z,21.10
2022-08-20T04:41:22.445Z,21.10
2022-08-20T04:43:56.022Z,21.10
2022-08-20T04:46:28.467Z,21.00
2022-08-20T04:48:57.034Z,21.00
2022-08-20T04:51:24.865Z,21.40
2022-08-20T04:53:54.291Z,21.30
2022-08-20T04:56:31.810Z,20.90
2022-08-20T04:59:01.546Z,21.00
2022-08-20T05:01:28.753Z,21.20
2022-08-20T05:03:57.791Z,21.10
2022-08-20T05:06:32.086Z,21.10
2022-08-20T05:09:00.861Z,21.20
2022-08-20T05:11:35.287Z,20.70
2022-08-20T05:14:08.939Z,20.80
2022-08-20T05:16:38.659Z,20.80
2022-08-20T05:19:09.544Z,20.60
2022-08-20T05:21:37.197Z,20.70
2022-08-20T05:24:05.282Z,20.70
2022-08-20T05:26:33.340Z,20.70
2022-08-20T05:29:00.211Z,20.70
2022-08-20T05:31:30.969Z,20.90
2022-08-20T05:34:10.351Z,20.50
2022-08-20T05:36:49.348Z,20.70
2022-08-20T05:39:18.743Z,20.70
2022-08-20T05:41:46.113Z,21.00
2022-08-20T05:44:16.048Z,21.00
2022-08-20T05:46:46.152Z,20.50
2022-08-20T05:49:18.871Z,20.50
2022-08-20T05:51:46.594Z,20.60
2022-08-20T05:54:15.562Z,20.70
2022-08-20T05:56:42.662Z,21.00
2022-08-20T05:59:12.500Z,20.70
2022-08-20T06:01:40.781Z,20.70
2022-08-20T06:04:27.824Z,20.70
2022-08-20T06:07:01.781Z,20.70
2022-08-20T06:09:31.743Z,21.10
2022-08-20T06:12:08.960Z,20.80
2022-08-20T06:14:36.301Z,20.90
2022-08-20T06:17:10.775Z,21.20
2022-08-20T06:19:44.094Z,20.90
2022-08-20T06:22:18.201Z,20.70
2022-08-20T06:24:49.076Z,21.00
2022-08-20T06:27:17.167Z,21.00
2022-08-20T06:29:44.066Z,21.00
2022-08-20T06:32:11.508Z,21.30
2022-08-20T06:34:38.326Z,21.00
2022-08-20T06:37:23.421Z,21.30
2022-08-20T06:40:13.336Z,21.10
2022-08-20T06:42:47.895Z,21.10
2022-08-20T06:45:20.621Z,21.00
2022-08-20T06:47:47.858Z,21.20
2022-08-20T06:50:22.031Z,21.60
2022-08-20T06:53:03.134Z,21.30
2022-08-20T06:55:30.541Z,21.30
2022-08-20T06:58:08.227Z,21.50
2022-08-20T07:00:55.058Z,21.50
2022-08-20T07:03:21.844Z,21.60
2022-08-20T07:05:48.644Z,21.60
2022-08-20T07:08:22.138Z,21.50
2022-08-20T07:10:50.775Z,22.10
2022-08-20T07:13:17.667Z,21.80
2022-08-20T07:15:45.438Z,21.80
2022-08-20T07:18:14.160Z,22.20
2022-08-20T07:20:42.523Z,22.40
2022-08-20T07:23:12.020Z,22.90
2022-08-20T07:25:44.038Z,22.80
2022-08-20T07:28:19.757Z,23.20
2022-08-20T07:31:13.405Z,23.50
2022-08-20T07:33:44.344Z,23.90
2022-08-20T07:36:13.624Z,24.30
2022-08-20T07:38:40.543Z,24.30
2022-08-20T07:41:13.321Z,24.90
2022-08-20T07:43:42.217Z,24.90
2022-08-20T07:46:09.246Z,25.00
2022-08-20T07:48:41.722Z,25.10
2022-08-20T07:51:10.949Z,25.50
2022-08-20T07:53:40.361Z,25.30
2022-08-20T07:56:11.962Z,25.50
2022-08-20T07:58:50.452Z,25.50
2022-08-20T08:01:26.328Z,25.70
2022-08-20T08:03:53.625Z,25.60
2022-08-20T08:06:30.319Z,25.90
2022-08-20T08:09:07.846Z,25.30
2022-08-20T08:11:39.961Z,25.60
2022-08-20T08:14:11.225Z,25.40
2022-08-20T08:16:39.160Z,25.60
2022-08-20T08:19:11.818Z,25.30
2022-08-20T08:21:39.009Z,25.30
2022-08-20T08:24:05.886Z,25.30
2022-08-20T08:26:32.933Z,25.40
2022-08-20T08:28:59.741Z,25.80
2022-08-20T08:31:26.923Z,25.60
2022-08-20T08:33:54.028Z,25.80
2022-08-20T08:36:21.311Z,25.90
2022-08-20T08:38:48.115Z,26.10
2022-08-20T08:41:33.956Z,26.20
2022-08-20T08:44:21.680Z,26.40
2022-08-20T08:46:52.630Z,26.80
2022-08-20T08:49:33.898Z,26.50
2022-08-20T08:52:12.561Z,26.60
2022-08-20T08:54:47.590Z,26.80
2022-08-20T08:57:14.526Z,26.60
2022-08-20T08:59:52.322Z,26.50
2022-08-20T09:02:32.289Z,26.60
2022-08-20T09:05:02.434Z,26.50
2022-08-20T09:07:33.451Z,26.70
2022-08-20T09:10:02.285Z,26.50
2022-08-20T09:12:29.229Z,26.40
2022-08-20T09:14:56.048Z,26.40
2022-08-20T09:17:23.816Z,26.30
2022-08-20T09:19:52.211Z,26.40
2022-08-20T09:22:22.534Z,26.20
2022-08-20T09:24:50.935Z,26.50
2022-08-20T09:27:18.678Z,26.90
2022-08-20T09:29:46.061Z,27.00
2022-08-20T09:32:23.047Z,26.90
2022-08-20T09:34:56.302Z,26.80
2022-08-20T09:37:35.061Z,26.80
2022-08-20T09:40:07.225Z,26.90
2022-08-20T09:42:41.372Z,27.00
2022-08-20T09:45:11.494Z,27.10
2022-08-20T09:47:41.689Z,27.00
2022-08-20T09:50:22.141Z,27.20
2022-08-20T09:52:53.870Z,27.10
2022-08-20T09:55:37.881Z,27.10
2022-08-20T09:58:25.889Z,27.00
2022-08-20T10:00:55.256Z,27.10
2022-08-20T10:03:24.889Z,27.00
2022-08-20T10:05:51.693Z,27.10
2022-08-20T10:08:18.617Z,27.30
2022-08-20T10:10:45.462Z,27.10
2022-08-20T10:13:12.740Z,27.20
2022-08-20T10:15:42.382Z,27.20
2022-08-20T10:18:10.304Z,27.20
2022-08-20T10:20:39.942Z,26.90
2022-08-20T10:23:06.882Z,27.70
2022-08-20T10:25:33.755Z,27.60
2022-08-20T10:28:04.616Z,27.70
2022-08-20T10:30:51.333Z,28.20
2022-08-20T10:33:18.597Z,28.60
2022-08-20T10:35:51.259Z,28.70
2022-08-20T10:38:31.052Z,28.90
2022-08-20T10:41:00.288Z,29.30
2022-08-20T10:43:28.228Z,29.40
2022-08-20T10:46:07.237Z,29.70
2022-08-20T10:48:43.793Z,30.00
2022-08-20T10:51:13.628Z,30.50
2022-08-20T10:54:12.477Z,30.80
2022-08-20T10:56:42.668Z,31.20
2022-08-20T10:59:12.659Z,31.60
2022-08-20T11:01:50.993Z,31.90
2022-08-20T11:04:23.629Z,32.30
2022-08-20T11:06:59.737Z,32.50
2022-08-20T11:09:29.739Z,32.90
2022-08-20T11:12:07.916Z,33.00
2022-08-20T11:14:38.929Z,33.30
2022-08-20T11:17:07.343Z,33.50
2022-08-20T11:19:43.616Z,33.80
2022-08-20T11:22:30.168Z,34.10
2022-08-20T11:28:10.311Z,34.50
2022-08-20T11:30:47.628Z,34.70
2022-08-20T11:33:24.866Z,34.80
2022-08-20T11:35:54.627Z,34.80
2022-08-20T11:38:26.404Z,34.90
2022-08-20T11:40:56.015Z,34.90
2022-08-20T11:43:35.105Z,35.00
2022-08-20T11:46:04.368Z,35.00
2022-08-20T11:48:43.557Z,35.00
2022-08-20T11:51:49.043Z,35.00
2022-08-20T11:54:17.561Z,35.10
2022-08-20T11:56:53.662Z,35.10
2022-08-20T11:59:26.060Z,35.10
2022-08-20T12:02:08.942Z,35.10
2022-08-20T12:04:44.272Z,35.10
2022-08-20T12:07:22.070Z,35.10
2022-08-20T12:09:52.260Z,35.10
2022-08-20T12:12:29.599Z,35.10
2022-08-20T12:14:56.549Z,35.00
2022-08-20T12:17:39.872Z,35.00
2022-08-20T12:20:21.032Z,34.90
2022-08-20T12:22:48.125Z,34.80
2022-08-20T12:25:17.997Z,34.70
2022-08-20T12:27:51.952Z,34.70
2022-08-20T12:30:30.526Z,34.50
2022-08-20T12:32:57.796Z,34.70
2022-08-20T12:38:25.320Z,34.60
2022-08-20T12:41:01.539Z,34.30
2022-08-20T12:43:28.695Z,34.30
2022-08-20T12:46:09.632Z,34.20
2022-08-20T12:49:00.987Z,34.20
2022-08-20T12:51:33.250Z,34.00
2022-08-20T12:54:07.992Z,33.90
2022-08-20T12:56:56.055Z,33.80
2022-08-20T12:59:59.023Z,33.80
2022-08-20T13:02:32.987Z,33.70
2022-08-20T13:05:05.258Z,33.70
2022-08-20T13:07:38.732Z,33.60
2022-08-20T13:10:16.872Z,33.50
2022-08-20T13:12:47.887Z,33.50
2022-08-20T13:15:27.054Z,33.50
2022-08-20T13:18:05.333Z,33.50
2022-08-20T13:20:47.427Z,33.50
2022-08-20T13:23:20.832Z,33.60
2022-08-20T13:25:50.384Z,33.40
2022-08-20T13:28:28.149Z,33.40
2022-08-20T13:31:02.185Z,33.40
2022-08-20T13:33:33.446Z,33.40
2022-08-20T13:36:00.698Z,33.40
2022-08-20T13:38:33.541Z,33.30
2022-08-20T13:41:12.096Z,33.30
2022-08-20T13:43:51.785Z,33.30
2022-08-20T13:46:23.955Z,33.20
2022-08-20T13:48:58.445Z,33.20
2022-08-20T13:51:31.269Z,33.10
2022-08-20T13:54:06.212Z,33.00
2022-08-20T13:56:40.888Z,33.20
2022-08-20T13:59:13.579Z,33.10
2022-08-20T14:01:43.026Z,32.90
2022-08-20T14:04:14.916Z,32.90
2022-08-20T14:06:47.320Z,32.80
2022-08-20T14:09:19.093Z,32.90
2022-08-20T14:11:53.168Z,32.60
2022-08-20T14:14:26.360Z,32.60
2022-08-20T14:17:17.939Z,32.50
2022-08-20T14:19:47.647Z,32.30
2022-08-20T14:22:23.271Z,32.30
2022-08-20T14:24:56.498Z,32.20
2022-08-20T14:27:54.192Z,32.10
2022-08-20T14:30:29.511Z,32.00
2022-08-20T14:33:10.667Z,31.90
2022-08-20T14:35:58.111Z,31.80
2022-08-20T14:38:32.455Z,31.80
2022-08-20T14:41:03.336Z,31.70
2022-08-20T14:43:45.764Z,31.80
2022-08-20T14:46:20.506Z,31.60
2022-08-20T14:51:49.186Z,31.70
2022-08-20T14:52:04.790Z,31.70
2022-08-20T14:54:16.350Z,31.60
2022-08-20T14:57:01.915Z,31.60
2022-08-20T14:59:32.112Z,31.50
2022-08-20T15:02:01.949Z,31.40
2022-08-20T15:04:38.399Z,31.30
2022-08-20T15:07:34.869Z,31.20
2022-08-20T15:10:31.377Z,31.10
2022-08-20T15:13:02.490Z,31.00
2022-08-20T15:15:44.687Z,30.80
2022-08-20T15:18:25.061Z,30.80
2022-08-20T15:21:01.174Z,30.70
2022-08-20T15:23:40.908Z,30.60
2022-08-20T15:26:10.474Z,30.60
2022-08-20T15:28:47.627Z,30.50
2022-08-20T15:31:25.495Z,30.50
2022-08-20T15:33:57.866Z,30.40
2022-08-20T15:36:39.488Z,30.40
2022-08-20T15:39:17.120Z,30.40
2022-08-20T15:42:10.145Z,30.40
2022-08-20T15:44:41.520Z,30.60
2022-08-20T15:47:34.983Z,30.40
2022-08-20T15:50:24.949Z,30.30
2022-08-20T15:53:19.278Z,30.30
2022-08-20T15:56:42.235Z,30.30
2022-08-20T15:59:42.441Z,30.20
2022-08-20T16:03:06.641Z,30.20
2022-08-20T16:05:48.942Z,30.20
2022-08-20T16:09:18.439Z,30.20
2022-08-20T16:12:31.508Z,30.20
2022-08-20T16:15:15.612Z,30.10
2022-08-20T16:18:26.072Z,29.90
2022-08-20T16:20:55.425Z,30.20
2022-08-20T16:27:07.721Z,30.00
2022-08-20T16:30:06.811Z,29.90
2022-08-20T16:32:36.950Z,29.90
2022-08-20T16:35:31.743Z,29.80
2022-08-20T16:38:14.129Z,29.70
2022-08-20T16:40:56.919Z,29.70
2022-08-20T16:43:54.118Z,29.70
2022-08-20T16:46:34.023Z,29.50
2022-08-20T16:49:13.471Z,29.40
2022-08-20T16:51:52.351Z,29.40
2022-08-20T16:54:28.186Z,29.30
2022-08-20T16:57:06.436Z,29.20
2022-08-20T16:59:33.770Z,29.10
2022-08-20T17:02:18.614Z,29.00
2022-08-20T17:04:59.614Z,28.90
2022-08-20T17:07:45.998Z,28.90
2022-08-20T17:10:34.296Z,28.90
2022-08-20T17:13:19.913Z,28.80
2022-08-20T17:16:06.582Z,28.70
2022-08-20T17:18:38.028Z,28.60
2022-08-20T17:21:38.028Z,28.50
2022-08-20T17:24:20.298Z,28.40
2022-08-20T17:27:04.391Z,28.50
2022-08-20T17:29:53.067Z,28.30
2022-08-20T17:32:29.607Z,28.20
2022-08-20T17:35:04.424Z,28.10
2022-08-20T17:38:23.399Z,28.00
2022-08-20T17:40:50.426Z,27.90
2022-08-20T17:43:32.478Z,27.80
2022-08-20T17:46:16.667Z,27.70
2022-08-20T17:48:48.192Z,27.60
2022-08-20T17:51:24.535Z,27.50
2022-08-20T17:54:07.712Z,27.50
2022-08-20T17:56:40.805Z,27.40
2022-08-20T17:59:33.523Z,27.20
2022-08-20T18:02:12.859Z,27.10
2022-08-20T18:04:41.641Z,27.10
2022-08-20T18:07:20.679Z,26.90
2022-08-20T18:10:03.321Z,26.90
2022-08-20T18:13:07.738Z,26.70
2022-08-20T18:15:46.953Z,26.60
2022-08-20T18:19:01.741Z,26.50
2022-08-20T18:22:07.139Z,26.40
2022-08-20T18:25:00.673Z,26.30
2022-08-20T18:27:38.777Z,26.20
2022-08-20T18:30:24.477Z,26.10
2022-08-20T18:33:07.669Z,26.00
2022-08-20T18:35:44.879Z,25.90
2022-08-20T18:38:33.486Z,25.80
2022-08-20T18:41:35.251Z,25.60
2022-08-20T18:44:26.695Z,25.50
2022-08-20T18:46:59.854Z,25.40
2022-08-20T18:49:37.771Z,25.30
2022-08-20T18:52:27.648Z,25.20
2022-08-20T18:55:04.952Z,25.10
2022-08-20T18:58:00.549Z,25.00
2022-08-20T19:00:50.032Z,24.90
2022-08-20T19:03:35.937Z,24.80
2022-08-20T19:06:33.690Z,24.70
2022-08-20T19:10:01.568Z,24.50
2022-08-20T19:12:53.142Z,24.40
2022-08-20T19:15:25.051Z,24.30
2022-08-20T19:18:11.309Z,24.20
2022-08-20T19:20:49.822Z,24.10
2022-08-20T19:23:21.936Z,24.00
2022-08-20T19:26:25.053Z,23.90
2022-08-20T19:32:23.524Z,23.80
2022-08-20T19:35:05.149Z,23.70
2022-08-20T19:37:50.831Z,23.60
2022-08-20T19:40:28.448Z,23.50
2022-08-20T19:42:59.363Z,23.50
2022-08-20T19:45:47.006Z,23.40
2022-08-20T19:48:41.814Z,23.30
2022-08-20T19:51:45.849Z,23.20
2022-08-20T19:54:28.310Z,23.20
2022-08-20T19:57:05.606Z,23.10
2022-08-20T19:59:33.224Z,23.00
2022-08-20T20:02:04.739Z,23.10
2022-08-20T20:04:55.829Z,22.90
2022-08-20T20:07:43.050Z,22.90
2022-08-20T20:10:30.508Z,22.80
2022-08-20T20:13:07.377Z,22.80
2022-08-20T20:15:34.566Z,22.70
2022-08-20T20:18:01.555Z,22.70
2022-08-20T20:20:35.102Z,22.60
2022-08-20T20:23:16.630Z,22.60
2022-08-20T20:25:48.607Z,22.50
2022-08-20T20:28:30.023Z,22.50
2022-08-20T20:31:13.938Z,22.40
2022-08-20T20:33:44.412Z,22.40
2022-08-20T20:36:17.662Z,22.40
2022-08-20T20:39:00.470Z,22.30
2022-08-20T20:41:29.338Z,22.30
2022-08-20T20:44:19.835Z,22.20
2022-08-20T20:46:51.378Z,22.20
2022-08-20T20:49:25.562Z,22.10
2022-08-20T20:52:18.527Z,22.10
2022-08-20T20:54:47.070Z,22.00
2022-08-20T20:57:19.631Z,22.00
2022-08-20T21:00:14.041Z,21.90
2022-08-20T21:02:42.369Z,21.90
2022-08-20T21:05:11.094Z,21.90
2022-08-20T21:07:54.698Z,21.80
2022-08-20T21:10:25.675Z,21.70
2022-08-20T21:12:53.607Z,21.70
2022-08-20T21:15:23.407Z,21.70
2022-08-20T21:17:50.598Z,21.70
2022-08-20T21:20:20.587Z,21.70
2022-08-20T21:22:47.436Z,21.60
2022-08-20T21:25:14.963Z,21.50
2022-08-20T21:27:47.176Z,21.50
2022-08-20T21:30:16.540Z,21.40
2022-08-20T21:32:43.420Z,21.40
2022-08-20T21:35:11.080Z,21.30
2022-08-20T21:37:38.899Z,21.20
2022-08-20T21:40:08.887Z,21.30
2022-08-20T21:42:38.671Z,21.20
2022-08-20T21:45:15.539Z,21.20
2022-08-20T21:47:46.769Z,21.20
2022-08-20T21:50:19.062Z,21.10
2022-08-20T21:52:59.298Z,21.20
2022-08-20T21:55:38.802Z,21.10
2022-08-20T21:58:09.805Z,21.10
2022-08-20T22:01:00.470Z,21.00
2022-08-20T22:03:38.511Z,20.90
2022-08-20T22:06:09.593Z,20.90
2022-08-20T22:08:36.585Z,20.90
2022-08-20T22:11:05.708Z,20.80
2022-08-20T22:13:34.265Z,20.80
2022-08-20T22:16:05.107Z,20.70
2022-08-20T22:18:33.267Z,20.70
2022-08-20T22:21:00.660Z,20.50
2022-08-20T22:23:27.809Z,20.40
2022-08-20T22:25:54.981Z,20.40
2022-08-20T22:28:22.187Z,20.30
2022-08-20T22:30:49.178Z,20.20
2022-08-20T22:33:22.123Z,20.10
2022-08-20T22:35:53.145Z,20.10
2022-08-20T22:38:20.980Z,20.00
2022-08-20T22:40:48.408Z,20.00
2022-08-20T22:43:15.632Z,19.80
2022-08-20T22:45:46.774Z,19.80
2022-08-20T22:48:17.789Z,19.80
2022-08-20T22:50:45.482Z,19.60
2022-08-20T22:53:14.539Z,19.60
2022-08-20T22:55:41.564Z,19.50
2022-08-20T22:58:08.580Z,19.40
2022-08-20T23:00:37.752Z,19.40
2022-08-20T23:03:05.651Z,19.40
2022-08-20T23:05:36.757Z,19.30
2022-08-20T23:08:06.795Z,19.30
2022-08-20T23:10:35.991Z,19.20
2022-08-20T23:13:06.580Z,19.20
2022-08-20T23:15:38.829Z,19.10
2022-08-20T23:18:14.632Z,19.10
2022-08-20T23:20:45.542Z,19.10
2022-08-20T23:23:12.350Z,19.10
2022-08-20T23:25:40.868Z,19.20
2022-08-20T23:28:07.731Z,18.90
2022-08-20T23:30:34.770Z,18.90
2022-08-20T23:33:06.161Z,18.90
2022-08-20T23:35:33.590Z,19.00
2022-08-20T23:38:00.849Z,18.80
2022-08-20T23:40:29.344Z,18.90
2022-08-20T23:42:57.494Z,18.80
2022-08-20T23:45:25.374Z,18.70
2022-08-20T23:47:52.795Z,18.90
2022-08-20T23:50:25.821Z,18.90
2022-08-20T23:53:20.074Z,18.70
2022-08-20T23:55:48.047Z,18.70
2022-08-20T23:58:15.748Z,18.70
